Time;durP1;ratioP1;P1;durP2;ratioP2;P2;SDS_P1;SDS_P2;PMS_P1;PMS_P2;Temp;Humidity;BMP_temperature;BMP_pressure;BME280_temperature;BME280_humidity;BME280_pressure;Samples;Min_cycle;Max_cycle;Signal;HPM_P1;HPM_P2
2022/05/02 00:02:01;;;;;;;0.70;0.33;;;9.80;99.90;;;;;;5035482;28;20194;-86
2022/05/02 00:04:27;;;;;;;3.07;0.50;;;9.80;72.90;;;;;;5054229;28;20630;-86
2022/05/02 00:06:52;;;;;;;0.90;0.20;;;9.80;1.00;;;;;;5036091;28;20177;-86
2022/05/02 00:09:18;;;;;;;1.77;0.43;;;9.60;99.90;;;;;;5054572;28;20198;-85
2022/05/02 00:11:43;;;;;;;1.87;0.47;;;9.60;1.00;;;;;;5055132;28;20630;-91
2022/05/02 00:14:09;;;;;;;1.70;0.40;;;9.50;1.00;;;;;;5037065;28;20173;-89
2022/05/02 00:16:36;;;;;;;0.90;0.30;;;9.50;99.90;;;;;;5054636;28;20649;-89
2022/05/02 00:19:01;;;;;;;0.97;0.30;;;9.50;99.90;;;;;;5036711;28;20200;-88
2022/05/02 00:21:27;;;;;;;2.43;0.70;;;9.40;99.90;;;;;;5036514;28;20943;-89
2022/05/02 00:23:52;;;;;;;1.13;0.57;;;9.30;99.90;;;;;;5054460;28;20183;-88
2022/05/02 00:26:18;;;;;;;1.20;0.50;;;9.00;1.00;;;;;;5054165;28;20182;-88
2022/05/02 00:28:43;;;;;;;1.67;0.73;;;9.00;1.00;;;;;;5054046;28;20245;-88
2022/05/02 00:31:09;;;;;;;2.90;0.83;;;8.70;1.00;;;;;;5054280;28;20708;-88
2022/05/02 00:33:34;;;;;;;1.40;0.87;;;8.70;1.00;;;;;;5036852;28;20172;-91
2022/05/02 00:36:00;;;;;;;1.67;0.20;;;8.60;1.00;;;;;;5037027;28;20318;-90
2022/05/02 00:38:25;;;;;;;2.77;0.90;;;8.60;1.00;;;;;;5037244;28;20226;-90
2022/05/02 00:40:51;;;;;;;2.10;0.80;;;8.50;1.00;;;;;;5037061;28;20208;-90
2022/05/02 00:43:17;;;;;;;1.80;0.83;;;8.40;1.00;;;;;;5037058;28;20693;-92
2022/05/02 00:45:43;;;;;;;1.07;0.43;;;8.40;1.00;;;;;;5037229;28;20524;-92
2022/05/02 00:48:11;;;;;;;7.77;1.00;;;8.30;1.00;;;;;;5037035;28;20422;-91
2022/05/02 00:50:43;;;;;;;1.20;0.40;;;8.10;21.20;;;;;;5037138;28;20180;-91
2022/05/02 00:53:14;;;;;;;1.87;0.77;;;8.10;47.70;;;;;;5036794;28;20436;-91
2022/05/02 00:55:46;;;;;;;1.17;0.30;;;8.20;93.80;;;;;;5037005;28;20464;-90
2022/05/02 00:58:14;;;;;;;1.30;0.60;;;8.20;82.60;;;;;;5036973;28;20929;-89
2022/05/02 01:00:40;;;;;;;1.10;0.80;;;8.20;63.60;;;;;;5036263;28;20468;-89
2022/05/02 01:03:08;;;;;;;4.83;1.00;;;8.10;92.70;;;;;;5036187;28;20422;-89
2022/05/02 01:07:08;;;;;;;1.60;0.60;;;8.10;31.40;;;;;;5053983;28;20236;-89
2022/05/02 01:08:26;;;;;;;1.73;0.67;;;8.10;20.00;;;;;;5054060;28;20914;-89
2022/05/02 01:10:54;;;;;;;0.93;0.30;;;8.20;14.30;;;;;;5036286;28;21006;-89
2022/05/02 01:13:39;;;;;;;1.83;0.70;;;8.00;24.90;;;;;;5053683;28;20415;-90
2022/05/02 01:16:28;;;;;;;0.80;0.57;;;8.00;92.60;;;;;;5036399;28;20555;-89
2022/05/02 01:18:57;;;;;;;4.00;0.60;;;8.00;99.90;;;;;;5053771;28;20422;-89
2022/05/02 01:21:29;;;;;;;3.37;0.93;;;7.90;99.90;;;;;;5035783;28;20428;-88
2022/05/02 01:23:59;;;;;;;1.10;0.47;;;7.80;99.90;;;;;;5053957;28;20397;-89
2022/05/02 01:26:24;;;;;;;2.40;1.17;;;7.80;99.90;;;;;;5035879;28;20508;-89
2022/05/02 01:28:54;;;;;;;1.43;0.93;;;7.70;99.90;;;;;;5053507;28;20421;-89
2022/05/02 01:31:20;;;;;;;1.67;0.60;;;7.70;99.90;;;;;;5035997;28;20178;-89
2022/05/02 01:33:47;;;;;;;2.07;0.63;;;7.60;99.90;;;;;;5036021;28;20426;-88
2022/05/02 01:36:14;;;;;;;3.60;0.73;;;7.70;99.90;;;;;;5035644;28;20930;-89
2022/05/02 01:38:40;;;;;;;1.63;1.00;;;7.60;99.90;;;;;;5036178;28;20490;-90
2022/05/02 01:41:09;;;;;;;1.30;0.77;;;7.60;99.90;;;;;;5053974;28;20994;-91
2022/05/02 01:47:02;;;;;;;3.13;1.33;;;7.30;99.90;;;;;;5054363;28;20750;-91
2022/05/02 01:49:28;;;;;;;2.03;0.47;;;7.30;99.90;;;;;;5036272;28;20416;-90
2022/05/02 01:51:54;;;;;;;2.33;0.93;;;7.20;99.90;;;;;;5053693;28;20400;-91
2022/05/02 01:54:20;;;;;;;2.40;0.77;;;7.10;99.90;;;;;;5036138;28;20186;-90
2022/05/02 01:56:45;;;;;;;2.80;1.30;;;7.20;99.90;;;;;;5054018;28;20410;-90
2022/05/02 01:59:11;;;;;;;2.40;1.17;;;7.30;99.90;;;;;;5035815;28;20569;-90
2022/05/02 02:01:37;;;;;;;1.70;0.63;;;7.30;99.90;;;;;;5053668;28;20170;-90
2022/05/02 02:05:48;;;;;;;1.70;1.13;;;7.40;99.90;;;;;;5053809;28;20477;-91
2022/05/02 02:06:50;;;;;;;2.43;1.10;;;7.40;99.90;;;;;;5053376;28;20166;-90
2022/05/02 02:09:15;;;;;;;2.60;1.30;;;7.40;99.90;;;;;;5035561;28;20421;-88
2022/05/02 02:11:41;;;;;;;1.93;0.80;;;7.40;99.90;;;;;;5052875;28;20172;-89
2022/05/02 02:14:07;;;;;;;2.17;1.40;;;7.50;99.90;;;;;;5035123;28;20173;-88
2022/05/02 02:16:32;;;;;;;4.00;1.20;;;7.50;99.90;;;;;;5052703;28;20227;-87
2022/05/02 02:18:58;;;;;;;4.57;2.17;;;7.50;99.90;;;;;;5035085;28;20429;-88
2022/05/02 02:21:23;;;;;;;2.87;1.10;;;7.40;99.90;;;;;;5052744;28;20179;-88
2022/05/02 02:23:49;;;;;;;7.10;0.90;;;7.40;99.90;;;;;;5052742;28;20183;-88
2022/05/02 02:26:14;;;;;;;3.17;1.03;;;7.40;99.90;;;;;;5055437;28;20179;-88
2022/05/02 02:28:40;;;;;;;1.37;0.73;;;7.40;99.90;;;;;;5056321;28;20174;-88
2022/05/02 02:31:05;;;;;;;1.63;0.93;;;7.40;99.90;;;;;;5038571;28;20237;-87
2022/05/02 02:33:31;;;;;;;5.50;1.20;;;7.40;99.90;;;;;;5056459;28;20238;-88
2022/05/02 02:35:57;;;;;;;2.00;1.03;;;7.40;99.90;;;;;;5038440;28;20174;-88
2022/05/02 02:38:22;;;;;;;3.57;1.20;;;7.40;99.90;;;;;;5056485;28;20175;-88
2022/05/02 02:40:48;;;;;;;1.73;0.63;;;7.30;99.90;;;;;;5038507;28;20339;-87
2022/05/02 02:43:13;;;;;;;2.37;1.30;;;7.40;99.90;;;;;;5038397;28;20232;-88
2022/05/02 02:45:39;;;;;;;3.80;1.17;;;7.20;99.90;;;;;;5056089;28;20177;-89
2022/05/02 02:48:05;;;;;;;2.33;0.83;;;7.20;99.90;;;;;;5056232;28;20175;-88
2022/05/02 02:50:31;;;;;;;1.63;1.00;;;7.10;99.90;;;;;;5056418;28;20182;-89
2022/05/02 02:52:56;;;;;;;1.60;0.97;;;7.10;99.90;;;;;;5038863;28;20428;-90
2022/05/02 02:55:22;;;;;;;2.70;0.90;;;7.00;99.90;;;;;;5039025;28;20177;-89
2022/05/02 02:57:48;;;;;;;3.17;1.50;;;6.80;99.90;;;;;;5038497;28;20642;-88
2022/05/02 03:00:14;;;;;;;5.50;1.00;;;6.70;99.90;;;;;;5056317;28;20217;-88
2022/05/02 03:02:41;;;;;;;2.67;1.23;;;6.60;99.90;;;;;;5038643;28;20166;-89
2022/05/02 03:07:51;;;;;;;2.40;1.23;;;6.40;99.90;;;;;;5056565;28;20416;-89
2022/05/02 03:10:17;;;;;;;1.30;0.73;;;6.40;99.90;;;;;;5056083;28;20416;-86
2022/05/02 03:12:43;;;;;;;3.40;1.53;;;6.40;99.90;;;;;;5056030;28;20630;-89
2022/05/02 03:15:09;;;;;;;2.43;1.33;;;6.40;99.90;;;;;;5056138;28;20558;-88
2022/05/02 03:17:34;;;;;;;2.60;1.27;;;6.40;99.90;;;;;;5038399;28;20181;-89
2022/05/02 03:20:00;;;;;;;3.37;1.37;;;6.30;99.90;;;;;;5038156;28;20735;-89
2022/05/02 03:22:25;;;;;;;1.90;0.80;;;6.20;99.90;;;;;;5055821;28;20170;-89
2022/05/02 03:24:51;;;;;;;3.33;1.43;;;6.10;99.90;;;;;;5056012;28;20178;-89
2022/05/02 03:27:16;;;;;;;1.57;1.17;;;6.10;99.90;;;;;;5038336;28;20261;-89
2022/05/02 03:29:42;;;;;;;1.10;0.60;;;6.10;99.90;;;;;;5038228;28;20232;-89
2022/05/02 03:32:07;;;;;;;3.13;1.10;;;6.10;99.90;;;;;;5038273;28;20173;-89
2022/05/02 03:34:33;;;;;;;1.50;0.87;;;6.10;99.90;;;;;;5055997;28;20166;-90
2022/05/02 03:36:58;;;;;;;2.30;1.30;;;6.10;99.90;;;;;;5037944;28;20575;-90
2022/05/02 03:39:24;;;;;;;2.40;1.00;;;6.20;99.90;;;;;;5055846;28;20200;-89
2022/05/02 03:41:49;;;;;;;5.20;1.27;;;6.20;99.90;;;;;;5037993;28;20269;-88
2022/05/02 03:44:15;;;;;;;2.00;1.10;;;6.20;99.90;;;;;;5037855;28;20236;-89
2022/05/02 03:46:40;;;;;;;2.90;1.00;;;6.20;99.90;;;;;;5055456;28;20204;-89
2022/05/02 03:49:06;;;;;;;3.10;1.37;;;6.20;99.90;;;;;;5037651;28;20178;-89
2022/05/02 03:51:32;;;;;;;2.30;1.33;;;6.30;99.90;;;;;;5037045;28;20227;-88
2022/05/02 03:53:57;;;;;;;2.10;1.43;;;6.20;99.90;;;;;;5037263;28;20213;-88
2022/05/02 03:56:22;;;;;;;2.83;1.20;;;6.20;99.90;;;;;;5037381;28;20627;-87
2022/05/02 03:58:48;;;;;;;3.30;1.70;;;6.10;99.90;;;;;;5054805;28;20176;-88
2022/05/02 04:01:13;;;;;;;2.13;1.93;;;6.00;99.90;;;;;;5055397;28;20243;-93
2022/05/02 04:03:39;;;;;;;2.47;1.30;;;5.90;99.90;;;;;;5038127;28;20643;-92
2022/05/02 04:06:04;;;;;;;3.30;1.80;;;5.90;99.90;;;;;;5044674;28;20186;-91
2022/05/02 04:08:30;;;;;;;3.10;1.10;;;6.00;99.90;;;;;;5038345;28;20666;-92
2022/05/02 04:10:55;;;;;;;2.20;1.33;;;6.20;99.90;;;;;;5038013;28;20181;-91
2022/05/02 04:13:21;;;;;;;3.57;1.23;;;6.30;99.90;;;;;;5055634;28;20649;-90
2022/05/02 04:15:46;;;;;;;2.53;0.83;;;6.40;99.90;;;;;;5037565;28;20261;-91
2022/05/02 04:18:12;;;;;;;2.10;0.80;;;6.40;99.90;;;;;;5037617;28;20178;-89
2022/05/02 04:20:37;;;;;;;5.97;2.30;;;6.50;99.90;;;;;;5037307;28;20208;-90
2022/05/02 04:23:03;;;;;;;4.30;2.23;;;6.70;99.90;;;;;;5055356;28;20197;-91
2022/05/02 04:25:28;;;;;;;3.50;2.43;;;6.80;99.90;;;;;;5055267;28;20337;-90
2022/05/02 04:27:54;;;;;;;2.07;1.23;;;6.90;99.90;;;;;;5055235;28;20292;-89
2022/05/02 04:30:19;;;;;;;3.20;1.83;;;7.00;99.90;;;;;;5036525;28;20174;-88
2022/05/02 04:32:45;;;;;;;3.37;2.00;;;7.10;99.90;;;;;;5054996;28;20166;-88
2022/05/02 04:35:10;;;;;;;2.87;2.20;;;7.20;99.90;;;;;;5036951;28;20177;-90
2022/05/02 04:37:37;;;;;;;1.87;1.10;;;7.30;99.90;;;;;;5036998;28;20183;-89
2022/05/02 04:40:06;;;;;;;2.20;1.20;;;7.30;99.90;;;;;;5054511;28;20260;-88
2022/05/02 04:42:31;;;;;;;6.20;1.80;;;7.50;99.90;;;;;;5036697;28;20418;-89
2022/05/02 04:44:57;;;;;;;5.20;2.90;;;7.60;99.90;;;;;;5036762;28;20786;-89
2022/05/02 04:47:22;;;;;;;3.80;1.73;;;7.70;99.90;;;;;;5036693;28;20176;-89
2022/05/02 04:49:47;;;;;;;3.47;1.73;;;7.70;99.90;;;;;;5036543;28;20179;-89
2022/05/02 04:52:13;;;;;;;3.23;1.43;;;7.70;99.90;;;;;;5036348;28;20183;-89
2022/05/02 04:54:38;;;;;;;2.53;1.50;;;7.80;99.90;;;;;;5036549;28;20307;-88
2022/05/02 04:57:04;;;;;;;3.73;2.47;;;7.90;99.90;;;;;;5054289;28;20208;-89
2022/05/02 04:59:30;;;;;;;5.50;1.40;;;8.00;99.90;;;;;;5036443;28;20668;-88
2022/05/02 05:01:57;;;;;;;2.00;1.53;;;8.10;99.90;;;;;;5054124;28;20428;-90
2022/05/02 05:04:23;;;;;;;2.30;1.37;;;8.20;99.90;;;;;;5054198;28;20530;-87
2022/05/02 05:06:48;;;;;;;3.53;1.37;;;8.30;99.90;;;;;;5053384;28;20430;-88
2022/05/02 05:09:14;;;;;;;2.43;1.00;;;8.30;99.90;;;;;;5035850;28;20675;-88
2022/05/02 05:11:53;;;;;;;3.83;1.73;;;8.40;95.00;;;;;;5035748;28;20201;-88
2022/05/02 05:17:45;;;;;;;3.03;1.30;;;8.60;33.80;;;;;;5053749;28;20454;-89
2022/05/02 05:20:20;;;;;;;2.80;1.37;;;8.70;97.70;;;;;;5052957;28;21039;-88
2022/05/02 05:22:56;;;;;;;1.67;0.90;;;8.80;99.90;;;;;;5035886;28;20450;-88
2022/05/02 05:25:33;;;;;;;2.97;2.23;;;8.90;99.90;;;;;;5036010;28;20929;-91
2022/05/02 05:28:33;;;;;;;2.70;0.93;;;9.00;8.80;;;;;;5036910;28;20515;-90
2022/05/02 05:31:19;;;;;;;3.57;1.47;;;9.10;1.00;;;;;;5054478;28;20419;-89
2022/05/02 05:33:53;;;;;;;3.07;1.50;;;9.30;1.00;;;;;;5054419;28;20603;-90
2022/05/02 05:36:35;;;;;;;3.50;2.40;;;9.30;1.00;;;;;;5035845;28;20430;-90
2022/05/02 05:39:10;;;;;;;5.17;3.00;;;9.40;1.00;;;;;;5054671;28;20920;-92
2022/05/02 05:42:03;;;;;;;4.53;2.33;;;9.40;1.00;;;;;;5056980;28;20415;-94
2022/05/02 05:44:44;;;;;;;5.20;2.17;;;9.50;1.00;;;;;;5037876;28;20467;-94
2022/05/02 05:47:15;;;;;;;3.67;2.13;;;9.50;1.00;;;;;;5037778;28;20427;-94
2022/05/02 05:49:47;;;;;;;2.27;1.23;;;9.70;1.00;;;;;;5041339;28;20409;-94
2022/05/02 05:52:38;;;;;;;2.57;1.03;;;9.80;36.40;;;;;;5040309;28;20421;-94
2022/05/02 05:55:30;;;;;;;3.23;1.40;;;10.00;1.00;;;;;;5036984;28;20415;-94
2022/05/02 05:58:17;;;;;;;4.07;1.70;;;10.10;1.00;;;;;;5064443;28;20429;-94
2022/05/02 06:00:50;;;;;;;3.70;1.67;;;10.30;1.00;;;;;;5047287;28;20484;-94
2022/05/02 06:03:23;;;;;;;2.50;1.70;;;10.50;97.20;;;;;;5043769;28;20419;-94
2022/05/02 06:05:49;;;;;;;2.93;1.70;;;10.70;1.00;;;;;;5058138;28;20467;-95
2022/05/02 06:08:18;;;;;;;3.30;1.43;;;10.80;1.00;;;;;;5041195;28;20423;-93
2022/05/02 06:10:45;;;;;;;1.97;1.03;;;10.90;1.00;;;;;;5041141;28;20440;-94
2022/05/02 06:13:14;;;;;;;2.40;1.20;;;11.00;1.00;;;;;;5040643;28;20417;-95
2022/05/02 06:18:34;;;;;;;2.30;1.13;;;11.10;99.90;;;;;;5059772;28;20464;-94
2022/05/02 06:21:04;;;;;;;2.50;0.70;;;11.20;1.00;;;;;;5039667;28;20476;-92
2022/05/02 06:23:35;;;;;;;4.07;1.10;;;11.30;1.00;;;;;;5040158;28;20442;-93
2022/05/02 06:26:02;;;;;;;1.67;0.80;;;11.40;99.90;;;;;;5040178;28;20434;-94
2022/05/02 06:28:47;;;;;;;4.60;1.70;;;11.50;1.00;;;;;;5040596;28;20409;-94
2022/05/02 06:31:26;;;;;;;2.27;1.00;;;11.60;99.90;;;;;;5040821;28;20425;-87
2022/05/02 06:33:52;;;;;;;2.07;1.00;;;11.80;99.90;;;;;;5056227;28;20945;-85
2022/05/02 06:36:31;;;;;;;2.17;0.77;;;12.00;99.90;;;;;;5056003;28;20416;-91
2022/05/02 06:39:13;;;;;;;1.70;0.40;;;12.10;99.90;;;;;;5025573;28;20189;-90
2022/05/02 06:42:00;;;;;;;2.03;0.63;;;12.30;99.90;;;;;;5057028;28;20412;-89
2022/05/02 06:44:47;;;;;;;2.47;0.40;;;12.50;99.90;;;;;;5056404;28;20447;-89
2022/05/02 06:47:24;;;;;;;2.50;0.53;;;12.70;99.90;;;;;;5038663;28;20426;-89
2022/05/02 06:49:54;;;;;;;2.43;1.03;;;12.80;99.90;;;;;;5037906;28;20504;-87
2022/05/02 06:52:33;;;;;;;1.87;0.90;;;12.90;99.90;;;;;;5055922;28;20416;-88
2022/05/02 06:55:16;;;;;;;1.73;0.60;;;13.10;89.10;;;;;;5055824;28;20794;-88
2022/05/02 06:58:12;;;;;;;2.60;0.80;;;13.10;53.50;;;;;;5037976;28;20738;-88
2022/05/02 07:00:51;;;;;;;2.10;0.57;;;13.20;79.60;;;;;;5037778;28;20464;-88
2022/05/02 07:03:48;;;;;;;3.03;0.67;;;13.60;34.00;;;;;;5037816;28;20924;-89
2022/05/02 07:06:29;;;;;;;1.13;0.40;;;14.30;53.90;;;;;;5054590;28;20463;-87
2022/05/02 07:09:00;;;;;;;1.20;0.60;;;14.80;11.60;;;;;;5055510;28;20418;-88
2022/05/02 07:11:44;;;;;;;3.20;0.70;;;15.60;1.00;;;;;;5055057;28;20414;-88
2022/05/02 07:14:20;;;;;;;2.17;0.50;;;16.90;1.00;;;;;;5055399;28;20816;-88
2022/05/02 07:16:49;;;;;;;4.07;0.90;;;17.50;1.00;;;;;;5037504;28;20437;-87
2022/05/02 07:19:48;;;;;;;3.90;0.93;;;18.40;1.00;;;;;;5055270;28;20430;-89
2022/05/02 07:22:26;;;;;;;7.77;1.03;;;19.50;1.00;;;;;;5055276;28;20908;-88
2022/05/02 07:25:13;;;;;;;4.47;0.63;;;19.70;1.00;;;;;;5055414;28;20491;-88
2022/05/02 07:28:18;;;;;;;1.33;0.50;;;20.90;1.00;;;;;;5037337;28;20891;-88
2022/05/02 07:30:46;;;;;;;7.60;0.90;;;21.20;1.00;;;;;;5055610;28;20410;-88
2022/05/02 07:33:12;;;;;;;3.07;1.00;;;20.80;1.00;;;;;;5055174;28;20503;-88
2022/05/02 07:35:38;;;;;;;1.87;0.53;;;21.70;1.00;;;;;;5037660;28;20440;-88
2022/05/02 07:38:06;;;;;;;3.43;1.07;;;21.80;1.00;;;;;;5054947;28;20504;-88
2022/05/02 07:40:33;;;;;;;4.37;0.77;;;22.30;1.00;;;;;;5054921;28;20468;-89
2022/05/02 07:43:00;;;;;;;2.93;1.10;;;22.40;1.00;;;;;;5054799;28;20517;-88
2022/05/02 07:45:30;;;;;;;1.90;0.73;;;21.80;1.00;;;;;;5054970;28;20482;-89
2022/05/02 07:48:04;;;;;;;1.30;0.60;;;21.10;1.00;;;;;;5037122;28;20506;-89
2022/05/02 07:50:29;;;;;;;6.37;1.03;;;20.70;1.00;;;;;;5036747;28;20428;-89
2022/05/02 07:52:57;;;;;;;1.67;0.80;;;22.00;1.00;;;;;;5054762;28;20907;-89
2022/05/02 07:55:23;;;;;;;1.63;0.50;;;22.80;1.00;;;;;;5055562;28;20165;-89
2022/05/02 07:57:50;;;;;;;1.97;0.93;;;21.80;1.00;;;;;;5055298;28;20415;-89
2022/05/02 08:00:16;;;;;;;3.40;1.00;;;19.60;1.00;;;;;;5054932;28;20464;-89
2022/05/02 08:02:43;;;;;;;3.03;0.50;;;19.20;1.00;;;;;;5036764;28;20404;-88
2022/05/02 08:05:09;;;;;;;1.33;0.30;;;20.30;1.00;;;;;;5054208;28;20423;-89
2022/05/02 08:07:45;;;;;;;0.70;0.40;;;20.40;1.00;;;;;;5036687;28;20928;-90
2022/05/02 08:10:30;;;;;;;1.30;0.90;;;20.00;1.00;;;;;;5054396;28;20414;-90
2022/05/02 08:13:01;;;;;;;2.33;0.60;;;20.20;1.00;;;;;;5054548;28;20408;-89
2022/05/02 08:15:33;;;;;;;2.97;0.40;;;19.50;1.00;;;;;;5054387;28;20400;-89
2022/05/02 08:18:17;;;;;;;1.13;0.50;;;18.60;1.00;;;;;;5036544;28;20781;-88
2022/05/02 08:20:53;;;;;;;2.63;0.50;;;18.10;1.00;;;;;;5036056;28;20471;-88
2022/05/02 08:29:34;;;;;;;3.70;0.40;;;18.40;1.00;;;;;;5054517;28;20405;-90
2022/05/02 08:32:03;;;;;;;1.00;0.47;;;19.10;1.00;;;;;;5036294;28;20424;-88
2022/05/02 08:34:36;;;;;;;4.13;0.80;;;19.00;1.00;;;;;;5053585;28;20407;-88
2022/05/02 08:37:16;;;;;;;3.30;0.87;;;18.80;1.00;;;;;;5036200;28;20427;-89
2022/05/02 08:40:10;;;;;;;1.97;1.03;;;18.80;1.00;;;;;;5036020;28;20542;-89
2022/05/02 08:42:46;;;;;;;1.20;0.40;;;19.20;1.00;;;;;;5053838;28;20429;-89
2022/05/02 08:45:26;;;;;;;1.50;1.03;;;19.70;1.00;;;;;;5053955;28;20430;-89
2022/05/02 08:48:03;;;;;;;3.00;0.90;;;19.60;1.00;;;;;;5036116;28;20512;-88
2022/05/02 08:51:06;;;;;;;1.90;0.70;;;19.50;1.00;;;;;;5035555;28;20439;-90
2022/05/02 08:53:51;;;;;;;1.70;0.80;;;20.10;1.00;;;;;;5053587;28;20443;-89
2022/05/02 08:56:49;;;;;;;1.87;0.67;;;19.50;1.00;;;;;;5053811;28;20443;-89
2022/05/02 08:59:28;;;;;;;1.33;0.87;;;19.40;1.00;;;;;;5053549;28;20869;-89
2022/05/02 09:02:28;;;;;;;1.53;1.20;;;19.80;1.00;;;;;;5035755;28;20428;-89
2022/05/02 09:05:32;;;;;;;2.83;0.83;;;20.30;1.00;;;;;;5035466;28;20447;-89
2022/05/02 09:08:39;;;;;;;3.03;1.63;;;20.80;1.00;;;;;;5053431;28;20441;-89
2022/05/02 09:11:31;;;;;;;4.40;2.20;;;21.10;1.00;;;;;;5053431;28;20420;-88
2022/05/02 09:14:27;;;;;;;2.73;2.07;;;21.50;1.00;;;;;;5053388;28;20420;-89
2022/05/02 09:17:25;;;;;;;3.13;1.70;;;21.20;1.00;;;;;;5053535;28;20477;-90
2022/05/02 09:20:02;;;;;;;2.77;1.83;;;21.20;1.00;;;;;;5035234;28;20485;-90
2022/05/02 09:22:51;;;;;;;3.47;2.40;;;20.20;1.00;;;;;;5062530;28;20420;-91
2022/05/02 09:25:57;;;;;;;2.20;1.80;;;20.00;1.00;;;;;;5042696;28;20931;-89
2022/05/02 09:28:51;;;;;;;3.33;2.30;;;20.50;1.00;;;;;;5065549;28;20435;-90
2022/05/02 09:32:01;;;;;;;5.70;3.40;;;20.70;1.00;;;;;;5066846;28;20458;-89
2022/05/02 09:35:03;;;;;;;5.00;3.80;;;22.00;1.00;;;;;;5067131;28;20404;-91
2022/05/02 09:37:55;;;;;;;3.93;3.37;;;22.80;1.00;;;;;;5070845;28;20430;-90
2022/05/02 09:40:42;;;;;;;5.10;4.40;;;22.70;1.00;;;;;;5070963;28;20468;-87
2022/05/02 09:49:33;;;;;;;4.33;4.00;;;22.10;1.00;;;;;;5052601;28;20452;-87
2022/05/02 09:50:11;;;;;;;5.53;4.70;;;22.10;1.00;;;;;;5014454;28;20406;-89
2022/05/02 09:52:59;;;;;;;4.90;3.97;;;23.70;1.00;;;;;;5057460;28;20444;-88
2022/05/02 09:59:23;;;;;;;4.97;4.47;;;24.60;1.00;;;;;;5075336;28;20931;-89
2022/05/02 10:01:54;;;;;;;4.77;4.27;;;24.70;1.00;;;;;;5073105;28;20452;-90
2022/05/02 10:04:41;;;;;;;4.40;3.80;;;24.60;1.00;;;;;;5072160;28;20514;-89
2022/05/02 10:07:09;;;;;;;4.93;4.33;;;25.00;1.00;;;;;;5054787;28;20415;-89
2022/05/02 10:10:03;;;;;;;5.97;5.23;;;25.00;1.00;;;;;;5039040;28;20463;-89
2022/05/02 10:16:39;;;;;;;6.30;5.73;;;25.20;1.00;;;;;;5077629;28;20408;-88
2022/05/02 10:19:14;;;;;;;5.37;4.03;;;25.00;1.00;;;;;;5074293;28;20416;-87
2022/05/02 10:22:20;;;;;;;8.07;5.50;;;24.80;1.00;;;;;;5077201;28;20430;-88
2022/05/02 10:25:08;;;;;;;8.40;6.33;;;25.20;1.00;;;;;;5057615;28;20424;-88
2022/05/02 10:28:01;;;;;;;5.53;5.03;;;24.60;1.00;;;;;;5059929;28;20500;-88
2022/05/02 10:30:42;;;;;;;5.27;4.77;;;24.30;1.00;;;;;;5075729;28;20428;-90
2022/05/02 10:33:14;;;;;;;5.47;4.90;;;24.80;1.00;;;;;;5076922;28;20400;-89
2022/05/02 10:35:45;;;;;;;7.07;5.73;;;24.10;1.00;;;;;;5052697;28;20408;-89
2022/05/02 10:38:18;;;;;;;7.53;4.80;;;24.90;1.00;;;;;;5034403;28;20420;-89
2022/05/02 10:40:51;;;;;;;6.20;5.60;;;25.30;1.00;;;;;;5052300;28;20484;-89
2022/05/02 10:43:36;;;;;;;9.20;5.07;;;24.00;1.00;;;;;;5035169;28;20959;-89
2022/05/02 10:46:02;;;;;;;6.37;5.60;;;23.40;1.00;;;;;;5055931;28;20426;-90
2022/05/02 10:48:57;;;;;;;7.20;4.73;;;23.70;1.00;;;;;;5057295;28;20785;-89
2022/05/02 10:51:54;;;;;;;5.33;4.83;;;24.10;1.00;;;;;;5072226;28;20207;-90
2022/05/02 10:54:38;;;;;;;6.90;5.60;;;24.40;1.00;;;;;;5035918;28;20448;-87
2022/05/02 10:57:22;;;;;;;7.80;6.37;;;23.60;1.00;;;;;;5017877;28;20425;-89
2022/05/02 10:59:52;;;;;;;6.50;5.73;;;24.10;1.00;;;;;;5035708;28;20467;-93
2022/05/02 11:02:43;;;;;;;5.80;5.00;;;24.90;1.00;;;;;;5022894;28;20429;-94
2022/05/02 11:05:11;;;;;;;7.10;6.40;;;25.30;1.00;;;;;;5046825;28;20423;-87
2022/05/02 11:08:05;;;;;;;6.27;5.77;;;24.60;1.00;;;;;;5046716;28;20416;-94
2022/05/02 11:10:39;;;;;;;6.33;5.17;;;23.50;1.00;;;;;;5042508;28;20405;-83
2022/05/02 11:13:11;;;;;;;8.60;5.83;;;23.00;1.00;;;;;;5034452;28;20404;-83
2022/05/02 11:15:54;;;;;;;6.40;5.57;;;23.90;1.00;;;;;;5034795;28;20444;-85
2022/05/02 11:22:09;;;;;;;6.67;5.73;;;24.40;1.00;;;;;;5034527;28;20865;-85
2022/05/02 11:24:41;;;;;;;5.53;4.83;;;24.70;1.00;;;;;;5011459;28;20409;-83
2022/05/02 11:27:37;;;;;;;6.47;5.00;;;23.90;1.00;;;;;;5034608;28;20417;-83
2022/05/02 11:30:13;;;;;;;5.57;5.07;;;24.60;1.00;;;;;;5042155;28;20435;-82
2022/05/02 11:33:00;;;;;;;5.47;5.00;;;25.30;1.00;;;;;;5039209;28;20417;-82
2022/05/02 11:35:32;;;;;;;6.07;5.47;;;25.70;1.00;;;;;;5041112;28;20428;-83
2022/05/02 11:38:32;;;;;;;6.83;4.87;;;25.00;1.00;;;;;;5021785;28;20429;-84
2022/05/02 11:41:05;;;;;;;5.07;4.57;;;25.00;1.00;;;;;;5042109;28;20479;-82
2022/05/02 11:43:34;;;;;;;5.67;5.17;;;24.60;1.00;;;;;;5040138;28;20448;-81
2022/05/02 11:46:20;;;;;;;5.33;4.83;;;24.80;1.00;;;;;;5036666;28;20478;-82
2022/05/02 11:49:23;;;;;;;6.03;5.53;;;24.10;1.00;;;;;;5029453;28;20440;-83
2022/05/02 11:51:52;;;;;;;6.60;5.50;;;22.90;1.00;;;;;;5040377;28;20933;-82
2022/05/02 11:54:35;;;;;;;7.10;5.40;;;22.90;1.00;;;;;;5041727;28;20496;-83
2022/05/02 11:57:28;;;;;;;5.73;5.20;;;23.90;1.00;;;;;;5016923;28;20421;-82
2022/05/02 12:00:14;;;;;;;5.30;4.80;;;22.90;1.00;;;;;;5017333;28;20540;-83
2022/05/02 12:02:48;;;;;;;7.10;4.97;;;22.30;1.00;;;;;;5034344;28;20428;-82
2022/05/02 12:05:31;;;;;;;6.03;5.50;;;23.00;1.00;;;;;;5034110;28;20413;-81
2022/05/02 12:08:08;;;;;;;5.10;4.60;;;22.50;1.00;;;;;;5033234;28;20410;-82
2022/05/02 12:10:40;;;;;;;6.30;5.70;;;22.00;1.00;;;;;;5033883;28;20413;-83
2022/05/02 12:13:08;;;;;;;5.30;4.80;;;21.80;1.00;;;;;;5033902;28;20499;-81
2022/05/02 12:15:52;;;;;;;6.40;4.60;;;21.60;1.00;;;;;;5033622;28;20413;-83
2022/05/02 12:18:17;;;;;;;6.10;5.33;;;21.30;1.00;;;;;;5015811;28;20428;-83
2022/05/02 12:20:53;;;;;;;6.67;5.07;;;21.40;1.00;;;;;;5032761;28;20892;-82
2022/05/02 12:23:21;;;;;;;8.13;5.23;;;23.10;1.00;;;;;;5033386;28;20652;-82
2022/05/02 12:25:49;;;;;;;6.13;5.30;;;23.60;1.00;;;;;;5016086;28;20491;-82
2022/05/02 12:28:15;;;;;;;6.10;5.53;;;22.70;1.00;;;;;;5033417;28;20838;-82
2022/05/02 12:30:41;;;;;;;6.17;5.57;;;23.00;1.00;;;;;;5033537;28;20996;-82
2022/05/02 12:33:14;;;;;;;6.50;5.23;;;23.40;1.00;;;;;;5015652;28;20501;-83
2022/05/02 12:35:42;;;;;;;5.93;4.67;;;23.20;1.00;;;;;;5015335;28;20429;-82
2022/05/02 12:38:28;;;;;;;6.30;5.50;;;23.90;1.00;;;;;;5033390;28;20475;-82
2022/05/02 12:41:01;;;;;;;5.87;5.07;;;24.00;1.00;;;;;;5033394;28;21000;-82
2022/05/02 12:43:42;;;;;;;5.80;5.30;;;23.60;1.00;;;;;;5035134;28;20908;-82
2022/05/02 12:46:09;;;;;;;5.77;5.37;;;24.10;1.00;;;;;;5033117;28;20428;-83
2022/05/02 12:48:38;;;;;;;5.30;4.80;;;24.60;1.00;;;;;;5033271;28;20784;-83
2022/05/02 12:51:14;;;;;;;6.00;5.50;;;24.60;1.00;;;;;;5031594;28;20417;-83
2022/05/02 12:56:25;;;;;;;6.30;5.70;;;24.30;1.00;;;;;;5033596;28;20425;-82
2022/05/02 13:01:48;;;;;;;8.27;5.27;;;24.20;1.00;;;;;;5033730;28;20428;-82
2022/05/02 13:04:16;;;;;;;6.30;5.77;;;24.20;1.00;;;;;;5032389;28;20397;-82
2022/05/02 13:06:43;;;;;;;6.20;5.10;;;24.10;1.00;;;;;;5032732;28;20763;-82
2022/05/02 13:09:12;;;;;;;5.60;4.50;;;23.30;1.00;;;;;;5032281;28;20500;-82
2022/05/02 13:11:38;;;;;;;5.13;4.57;;;23.70;1.00;;;;;;5032646;28;20405;-82
2022/05/02 13:14:05;;;;;;;5.63;4.87;;;24.00;1.00;;;;;;5032702;28;20429;-83
2022/05/02 13:16:38;;;;;;;7.63;4.57;;;24.30;1.00;;;;;;5032670;28;20424;-83
2022/05/02 13:19:04;;;;;;;6.33;4.87;;;23.80;1.00;;;;;;5032230;28;20428;-83
2022/05/02 13:21:30;;;;;;;5.70;4.77;;;24.00;1.00;;;;;;5032544;28;20952;-84
2022/05/02 13:24:00;;;;;;;6.10;5.60;;;24.10;1.00;;;;;;5031267;28;20909;-83
2022/05/02 13:27:31;;;;;;;5.93;5.30;;;24.20;1.00;;;;;;5032400;28;20490;-83
2022/05/02 13:30:08;;;;;;;5.47;4.97;;;22.70;1.00;;;;;;4970659;28;20810;-83
2022/05/02 13:32:52;;;;;;;6.13;4.70;;;22.20;1.00;;;;;;4955191;28;20439;-83
2022/05/02 13:35:26;;;;;;;7.70;5.40;;;22.70;1.00;;;;;;5022737;28;20421;-84
2022/05/02 13:38:01;;;;;;;6.07;4.47;;;23.10;1.00;;;;;;5032086;28;20447;-84
2022/05/02 13:40:53;;;;;;;5.13;4.47;;;23.00;1.00;;;;;;5032138;28;20494;-83
2022/05/02 13:43:35;;;;;;;6.20;4.83;;;22.40;1.00;;;;;;5028243;28;20499;-83
2022/05/02 13:46:00;;;;;;;5.70;4.77;;;22.50;1.00;;;;;;5014641;28;20425;-83
2022/05/02 13:48:55;;;;;;;5.97;5.07;;;22.80;1.00;;;;;;5032196;28;20411;-81
2022/05/02 13:51:32;;;;;;;4.60;4.20;;;22.60;1.00;;;;;;5032022;28;20234;-82
2022/05/02 13:54:05;;;;;;;5.03;4.00;;;22.50;1.00;;;;;;5014470;28;20945;-82
2022/05/02 13:56:43;;;;;;;6.70;4.70;;;22.50;1.00;;;;;;5032072;28;20427;-82
2022/05/02 13:59:31;;;;;;;6.00;5.40;;;22.70;1.00;;;;;;5030958;28;20499;-81
2022/05/02 14:02:31;;;;;;;6.20;4.80;;;22.50;1.00;;;;;;5032096;28;20429;-82
2022/05/02 14:05:06;;;;;;;5.13;4.00;;;21.90;1.00;;;;;;5031768;28;20831;-82
2022/05/02 14:07:35;;;;;;;6.07;4.63;;;21.80;1.00;;;;;;5031960;28;20420;-83
2022/05/02 14:10:04;;;;;;;4.80;4.30;;;21.60;1.00;;;;;;5032193;28;20514;-82
2022/05/02 14:12:34;;;;;;;6.53;4.60;;;21.50;1.00;;;;;;5032103;28;20451;-82
2022/05/02 14:15:07;;;;;;;6.23;4.87;;;21.80;1.00;;;;;;5032132;28;20770;-82